sensor_id;sensor_type;location;lat;lon;timestamp;P1;durP1;ratioP1;P2;durP2;ratioP2
42840;SDS011;28491;46.898;7.660;2023-02-10T00:01:32;16.02;;;9.75;;
42840;SDS011;28491;46.898;7.660;2023-02-10T00:03:57;16.83;;;8.55;;
42840;SDS011;28491;46.898;7.660;2023-02-10T00:06:23;12.55;;;8.20;;
42840;SDS011;28491;46.898;7.660;2023-02-10T00:08:50;17.20;;;9.43;;
42840;SDS011;28491;46.898;7.660;2023-02-10T00:11:18;17.75;;;9.77;;
42840;SDS011;28491;46.898;7.660;2023-02-10T00:13:44;14.70;;;9.43;;
42840;SDS011;28491;46.898;7.660;2023-02-10T00:16:11;18.05;;;9.77;;
42840;SDS011;28491;46.898;7.660;2023-02-10T00:18:38;18.70;;;10.07;;
42840;SDS011;28491;46.898;7.660;2023-02-10T00:21:08;24.67;;;10.52;;
42840;SDS011;28491;46.898;7.660;2023-02-10T00:23:34;16.88;;;10.40;;
42840;SDS011;28491;46.898;7.660;2023-02-10T00:26:03;14.25;;;9.30;;
42840;SDS011;28491;46.898;7.660;2023-02-10T00:28:30;14.05;;;8.95;;
42840;SDS011;28491;46.898;7.660;2023-02-10T00:30:57;15.75;;;8.63;;
42840;SDS011;28491;46.898;7.660;2023-02-10T00:33:23;15.75;;;9.30;;
42840;SDS011;28491;46.898;7.660;2023-02-10T00:35:48;16.70;;;9.30;;
42840;SDS011;28491;46.898;7.660;2023-02-10T00:38:14;15.27;;;9.55;;
42840;SDS011;28491;46.898;7.660;2023-02-10T00:40:39;15.27;;;8.90;;
42840;SDS011;28491;46.898;7.660;2023-02-10T00:43:05;13.98;;;8.98;;
42840;SDS011;28491;46.898;7.660;2023-02-10T00:45:30;17.52;;;10.48;;
42840;SDS011;28491;46.898;7.660;2023-02-10T00:47:56;16.10;;;8.88;;
42840;SDS011;28491;46.898;7.660;2023-02-10T00:50:21;17.05;;;8.90;;
42840;SDS011;28491;46.898;7.660;2023-02-10T00:52:47;17.98;;;9.82;;
42840;SDS011;28491;46.898;7.660;2023-02-10T00:55:12;14.60;;;9.20;;
42840;SDS011;28491;46.898;7.660;2023-02-10T00:57:38;14.70;;;9.07;;
42840;SDS011;28491;46.898;7.660;2023-02-10T01:00:04;15.52;;;9.27;;
42840;SDS011;28491;46.898;7.660;2023-02-10T01:02:30;14.30;;;9.55;;
42840;SDS011;28491;46.898;7.660;2023-02-10T01:04:56;16.02;;;10.52;;
42840;SDS011;28491;46.898;7.660;2023-02-10T01:07:21;15.40;;;9.32;;
42840;SDS011;28491;46.898;7.660;2023-02-10T01:09:47;14.82;;;8.85;;
42840;SDS011;28491;46.898;7.660;2023-02-10T01:12:13;18.13;;;9.80;;
42840;SDS011;28491;46.898;7.660;2023-02-10T01:14:38;15.18;;;9.38;;
42840;SDS011;28491;46.898;7.660;2023-02-10T01:17:04;14.75;;;9.50;;
42840;SDS011;28491;46.898;7.660;2023-02-10T01:19:29;15.95;;;9.48;;
42840;SDS011;28491;46.898;7.660;2023-02-10T01:21:55;15.73;;;8.45;;
42840;SDS011;28491;46.898;7.660;2023-02-10T01:24:20;13.48;;;9.75;;
42840;SDS011;28491;46.898;7.660;2023-02-10T01:26:46;19.02;;;10.65;;
42840;SDS011;28491;46.898;7.660;2023-02-10T01:29:12;19.70;;;9.98;;
42840;SDS011;28491;46.898;7.660;2023-02-10T01:31:37;16.02;;;9.40;;
42840;SDS011;28491;46.898;7.660;2023-02-10T01:34:03;18.10;;;10.32;;
42840;SDS011;28491;46.898;7.660;2023-02-10T01:36:28;16.85;;;9.52;;
42840;SDS011;28491;46.898;7.660;2023-02-10T01:38:53;14.95;;;9.13;;
42840;SDS011;28491;46.898;7.660;2023-02-10T01:41:20;23.05;;;11.93;;
42840;SDS011;28491;46.898;7.660;2023-02-10T01:43:55;16.33;;;10.20;;
42840;SDS011;28491;46.898;7.660;2023-02-10T01:46:29;17.40;;;9.05;;
42840;SDS011;28491;46.898;7.660;2023-02-10T01:48:57;18.58;;;10.38;;
42840;SDS011;28491;46.898;7.660;2023-02-10T01:53:55;14.98;;;8.55;;
42840;SDS011;28491;46.898;7.660;2023-02-10T01:56:21;16.80;;;9.52;;
42840;SDS011;28491;46.898;7.660;2023-02-10T01:58:47;16.63;;;9.68;;
42840;SDS011;28491;46.898;7.660;2023-02-10T02:01:13;16.88;;;10.45;;
42840;SDS011;28491;46.898;7.660;2023-02-10T02:03:39;18.77;;;10.70;;
42840;SDS011;28491;46.898;7.660;2023-02-10T02:06:06;16.67;;;9.43;;
42840;SDS011;28491;46.898;7.660;2023-02-10T02:08:32;16.80;;;9.32;;
42840;SDS011;28491;46.898;7.660;2023-02-10T02:11:02;16.27;;;9.60;;
42840;SDS011;28491;46.898;7.660;2023-02-10T02:19:01;16.65;;;10.18;;
42840;SDS011;28491;46.898;7.660;2023-02-10T02:27:27;21.85;;;10.38;;
42840;SDS011;28491;46.898;7.660;2023-02-10T02:38:07;19.02;;;10.88;;
42840;SDS011;28491;46.898;7.660;2023-02-10T02:40:33;17.65;;;9.30;;
42840;SDS011;28491;46.898;7.660;2023-02-10T02:42:58;15.05;;;9.80;;
42840;SDS011;28491;46.898;7.660;2023-02-10T02:53:55;15.30;;;9.68;;
42840;SDS011;28491;46.898;7.660;2023-02-10T02:56:28;25.50;;;9.93;;
42840;SDS011;28491;46.898;7.660;2023-02-10T02:59:20;16.80;;;9.70;;
42840;SDS011;28491;46.898;7.660;2023-02-10T03:04:21;14.50;;;9.53;;
42840;SDS011;28491;46.898;7.660;2023-02-10T03:06:48;15.45;;;8.60;;
42840;SDS011;28491;46.898;7.660;2023-02-10T03:09:14;17.08;;;9.63;;
42840;SDS011;28491;46.898;7.660;2023-02-10T03:11:40;15.30;;;8.57;;
42840;SDS011;28491;46.898;7.660;2023-02-10T03:14:06;15.18;;;8.75;;
42840;SDS011;28491;46.898;7.660;2023-02-10T03:16:31;18.13;;;9.27;;
42840;SDS011;28491;46.898;7.660;2023-02-10T03:18:57;16.92;;;9.40;;
42840;SDS011;28491;46.898;7.660;2023-02-10T03:21:22;21.23;;;10.15;;
42840;SDS011;28491;46.898;7.660;2023-02-10T03:23:48;20.95;;;10.77;;
42840;SDS011;28491;46.898;7.660;2023-02-10T03:26:13;13.63;;;9.57;;
42840;SDS011;28491;46.898;7.660;2023-02-10T03:28:39;19.75;;;10.65;;
42840;SDS011;28491;46.898;7.660;2023-02-10T03:31:05;16.08;;;9.18;;
42840;SDS011;28491;46.898;7.660;2023-02-10T03:33:32;22.35;;;12.00;;
42840;SDS011;28491;46.898;7.660;2023-02-10T03:35:58;18.52;;;10.40;;
42840;SDS011;28491;46.898;7.660;2023-02-10T03:38:24;16.52;;;9.30;;
42840;SDS011;28491;46.898;7.660;2023-02-10T03:40:51;16.52;;;9.82;;
42840;SDS011;28491;46.898;7.660;2023-02-10T03:43:17;16.85;;;10.55;;
42840;SDS011;28491;46.898;7.660;2023-02-10T03:45:44;23.75;;;11.07;;
42840;SDS011;28491;46.898;7.660;2023-02-10T03:48:09;17.25;;;10.85;;
42840;SDS011;28491;46.898;7.660;2023-02-10T03:50:35;28.85;;;12.40;;
42840;SDS011;28491;46.898;7.660;2023-02-10T03:53:00;21.33;;;9.95;;
42840;SDS011;28491;46.898;7.660;2023-02-10T03:55:26;20.30;;;12.60;;
42840;SDS011;28491;46.898;7.660;2023-02-10T03:57:52;21.50;;;12.43;;
42840;SDS011;28491;46.898;7.660;2023-02-10T04:00:17;21.90;;;12.55;;
42840;SDS011;28491;46.898;7.660;2023-02-10T04:02:44;16.85;;;10.20;;
42840;SDS011;28491;46.898;7.660;2023-02-10T04:05:09;18.23;;;10.23;;
42840;SDS011;28491;46.898;7.660;2023-02-10T04:07:35;20.27;;;10.57;;
42840;SDS011;28491;46.898;7.660;2023-02-10T04:10:02;18.15;;;10.02;;
42840;SDS011;28491;46.898;7.660;2023-02-10T04:12:29;17.20;;;11.20;;
42840;SDS011;28491;46.898;7.660;2023-02-10T04:14:55;18.13;;;10.27;;
42840;SDS011;28491;46.898;7.660;2023-02-10T04:17:20;17.55;;;11.15;;
42840;SDS011;28491;46.898;7.660;2023-02-10T04:19:46;20.38;;;9.30;;
42840;SDS011;28491;46.898;7.660;2023-02-10T04:22:11;16.15;;;9.55;;
42840;SDS011;28491;46.898;7.660;2023-02-10T04:24:37;17.77;;;10.63;;
42840;SDS011;28491;46.898;7.660;2023-02-10T04:27:02;15.88;;;10.15;;
42840;SDS011;28491;46.898;7.660;2023-02-10T04:29:28;16.17;;;9.45;;
42840;SDS011;28491;46.898;7.660;2023-02-10T04:31:54;15.60;;;9.32;;
42840;SDS011;28491;46.898;7.660;2023-02-10T04:34:19;17.40;;;8.88;;
42840;SDS011;28491;46.898;7.660;2023-02-10T04:36:45;24.58;;;9.90;;
42840;SDS011;28491;46.898;7.660;2023-02-10T04:39:10;17.85;;;9.52;;
42840;SDS011;28491;46.898;7.660;2023-02-10T04:41:36;16.75;;;10.98;;
42840;SDS011;28491;46.898;7.660;2023-02-10T04:44:02;17.60;;;9.80;;
42840;SDS011;28491;46.898;7.660;2023-02-10T04:46:28;19.25;;;9.70;;
42840;SDS011;28491;46.898;7.660;2023-02-10T04:48:53;16.50;;;10.20;;
42840;SDS011;28491;46.898;7.660;2023-02-10T04:51:19;16.27;;;9.32;;
42840;SDS011;28491;46.898;7.660;2023-02-10T04:53:44;16.63;;;10.00;;
42840;SDS011;28491;46.898;7.660;2023-02-10T04:56:12;17.25;;;9.65;;
42840;SDS011;28491;46.898;7.660;2023-02-10T04:58:38;17.55;;;9.88;;
42840;SDS011;28491;46.898;7.660;2023-02-10T05:01:03;19.85;;;9.55;;
42840;SDS011;28491;46.898;7.660;2023-02-10T05:03:29;20.08;;;10.43;;
42840;SDS011;28491;46.898;7.660;2023-02-10T05:05:54;17.88;;;10.07;;
42840;SDS011;28491;46.898;7.660;2023-02-10T05:08:20;17.45;;;10.30;;
42840;SDS011;28491;46.898;7.660;2023-02-10T05:10:49;17.50;;;9.68;;
42840;SDS011;28491;46.898;7.660;2023-02-10T05:13:15;19.48;;;10.98;;
42840;SDS011;28491;46.898;7.660;2023-02-10T05:15:40;13.77;;;9.48;;
42840;SDS011;28491;46.898;7.660;2023-02-10T05:18:06;17.52;;;9.90;;
42840;SDS011;28491;46.898;7.660;2023-02-10T05:20:32;18.17;;;9.75;;
42840;SDS011;28491;46.898;7.660;2023-02-10T05:22:57;14.93;;;9.32;;
42840;SDS011;28491;46.898;7.660;2023-02-10T05:25:23;16.33;;;9.13;;
42840;SDS011;28491;46.898;7.660;2023-02-10T05:27:49;15.73;;;8.75;;
42840;SDS011;28491;46.898;7.660;2023-02-10T05:30:14;14.13;;;8.38;;
42840;SDS011;28491;46.898;7.660;2023-02-10T05:32:40;16.60;;;9.55;;
42840;SDS011;28491;46.898;7.660;2023-02-10T05:35:06;15.73;;;8.68;;
42840;SDS011;28491;46.898;7.660;2023-02-10T05:37:33;14.57;;;9.20;;
42840;SDS011;28491;46.898;7.660;2023-02-10T05:39:59;17.70;;;9.75;;
42840;SDS011;28491;46.898;7.660;2023-02-10T05:42:24;14.57;;;9.65;;
42840;SDS011;28491;46.898;7.660;2023-02-10T05:44:50;20.00;;;11.65;;
42840;SDS011;28491;46.898;7.660;2023-02-10T05:47:15;15.40;;;9.20;;
42840;SDS011;28491;46.898;7.660;2023-02-10T05:49:41;15.50;;;9.75;;
42840;SDS011;28491;46.898;7.660;2023-02-10T05:52:06;17.40;;;10.07;;
42840;SDS011;28491;46.898;7.660;2023-02-10T05:54:32;18.48;;;10.63;;
42840;SDS011;28491;46.898;7.660;2023-02-10T05:56:58;17.02;;;10.45;;
42840;SDS011;28491;46.898;7.660;2023-02-10T05:59:23;18.83;;;10.65;;
42840;SDS011;28491;46.898;7.660;2023-02-10T06:01:49;19.90;;;11.70;;
42840;SDS011;28491;46.898;7.660;2023-02-10T06:04:14;18.23;;;10.77;;
42840;SDS011;28491;46.898;7.660;2023-02-10T06:06:40;20.38;;;10.05;;
42840;SDS011;28491;46.898;7.660;2023-02-10T06:09:06;16.75;;;9.48;;
42840;SDS011;28491;46.898;7.660;2023-02-10T06:11:31;21.00;;;10.88;;
42840;SDS011;28491;46.898;7.660;2023-02-10T06:13:57;17.25;;;10.40;;
42840;SDS011;28491;46.898;7.660;2023-02-10T06:16:23;22.77;;;10.45;;
42840;SDS011;28491;46.898;7.660;2023-02-10T06:18:48;17.42;;;10.30;;
42840;SDS011;28491;46.898;7.660;2023-02-10T06:21:14;20.40;;;10.32;;
42840;SDS011;28491;46.898;7.660;2023-02-10T06:23:41;28.10;;;11.70;;
42840;SDS011;28491;46.898;7.660;2023-02-10T06:26:06;18.42;;;10.60;;
42840;SDS011;28491;46.898;7.660;2023-02-10T06:28:32;25.50;;;9.70;;
42840;SDS011;28491;46.898;7.660;2023-02-10T06:30:58;18.90;;;10.00;;
42840;SDS011;28491;46.898;7.660;2023-02-10T06:33:23;16.00;;;9.13;;
42840;SDS011;28491;46.898;7.660;2023-02-10T06:35:49;21.20;;;11.80;;
42840;SDS011;28491;46.898;7.660;2023-02-10T06:38:15;19.42;;;10.90;;
42840;SDS011;28491;46.898;7.660;2023-02-10T06:40:41;18.88;;;11.15;;
42840;SDS011;28491;46.898;7.660;2023-02-10T06:43:06;19.13;;;11.63;;
42840;SDS011;28491;46.898;7.660;2023-02-10T06:45:32;19.58;;;9.90;;
42840;SDS011;28491;46.898;7.660;2023-02-10T06:47:58;24.17;;;12.55;;
42840;SDS011;28491;46.898;7.660;2023-02-10T06:50:24;23.33;;;12.63;;
42840;SDS011;28491;46.898;7.660;2023-02-10T06:52:49;20.55;;;12.02;;
42840;SDS011;28491;46.898;7.660;2023-02-10T06:55:15;19.42;;;11.68;;
42840;SDS011;28491;46.898;7.660;2023-02-10T06:57:41;23.10;;;11.07;;
42840;SDS011;28491;46.898;7.660;2023-02-10T07:00:08;18.58;;;10.25;;
42840;SDS011;28491;46.898;7.660;2023-02-10T07:02:35;18.08;;;11.02;;
42840;SDS011;28491;46.898;7.660;2023-02-10T07:05:02;21.80;;;12.18;;
42840;SDS011;28491;46.898;7.660;2023-02-10T07:07:32;22.50;;;10.85;;
42840;SDS011;28491;46.898;7.660;2023-02-10T07:09:58;18.13;;;11.48;;
42840;SDS011;28491;46.898;7.660;2023-02-10T07:12:24;18.27;;;10.57;;
42840;SDS011;28491;46.898;7.660;2023-02-10T07:14:52;20.80;;;10.57;;
42840;SDS011;28491;46.898;7.660;2023-02-10T07:17:18;19.65;;;11.55;;
42840;SDS011;28491;46.898;7.660;2023-02-10T07:19:44;23.83;;;11.20;;
42840;SDS011;28491;46.898;7.660;2023-02-10T07:22:09;19.92;;;11.13;;
42840;SDS011;28491;46.898;7.660;2023-02-10T07:24:35;23.38;;;12.77;;
42840;SDS011;28491;46.898;7.660;2023-02-10T07:27:01;26.73;;;13.98;;
42840;SDS011;28491;46.898;7.660;2023-02-10T07:29:27;17.52;;;10.02;;
42840;SDS011;28491;46.898;7.660;2023-02-10T07:31:53;20.92;;;10.07;;
42840;SDS011;28491;46.898;7.660;2023-02-10T07:34:19;16.55;;;10.48;;
42840;SDS011;28491;46.898;7.660;2023-02-10T07:36:45;22.90;;;11.05;;
42840;SDS011;28491;46.898;7.660;2023-02-10T07:39:11;26.80;;;11.98;;
42840;SDS011;28491;46.898;7.660;2023-02-10T07:41:37;15.13;;;9.55;;
42840;SDS011;28491;46.898;7.660;2023-02-10T07:44:02;18.80;;;10.07;;
42840;SDS011;28491;46.898;7.660;2023-02-10T07:46:28;18.20;;;10.13;;
42840;SDS011;28491;46.898;7.660;2023-02-10T07:48:54;14.30;;;9.23;;
42840;SDS011;28491;46.898;7.660;2023-02-10T07:51:19;18.02;;;10.23;;
42840;SDS011;28491;46.898;7.660;2023-02-10T07:53:45;14.75;;;8.98;;
42840;SDS011;28491;46.898;7.660;2023-02-10T07:56:10;14.32;;;8.23;;
42840;SDS011;28491;46.898;7.660;2023-02-10T07:58:36;14.73;;;9.00;;
42840;SDS011;28491;46.898;7.660;2023-02-10T08:01:09;18.77;;;8.77;;
42840;SDS011;28491;46.898;7.660;2023-02-10T08:03:35;12.18;;;7.93;;
42840;SDS011;28491;46.898;7.660;2023-02-10T08:06:01;13.45;;;8.38;;
42840;SDS011;28491;46.898;7.660;2023-02-10T08:08:27;13.05;;;8.65;;
42840;SDS011;28491;46.898;7.660;2023-02-10T08:10:52;15.45;;;8.63;;
42840;SDS011;28491;46.898;7.660;2023-02-10T08:13:18;17.48;;;8.82;;
42840;SDS011;28491;46.898;7.660;2023-02-10T08:15:43;12.10;;;8.20;;
42840;SDS011;28491;46.898;7.660;2023-02-10T08:18:09;14.80;;;8.05;;
42840;SDS011;28491;46.898;7.660;2023-02-10T08:20:35;10.60;;;7.10;;
42840;SDS011;28491;46.898;7.660;2023-02-10T08:23:00;16.75;;;9.68;;
42840;SDS011;28491;46.898;7.660;2023-02-10T08:25:26;11.43;;;7.95;;
42840;SDS011;28491;46.898;7.660;2023-02-10T08:27:52;13.10;;;8.15;;
42840;SDS011;28491;46.898;7.660;2023-02-10T08:30:17;14.82;;;7.85;;
42840;SDS011;28491;46.898;7.660;2023-02-10T08:32:43;16.08;;;8.43;;
42840;SDS011;28491;46.898;7.660;2023-02-10T08:35:09;11.73;;;8.05;;
42840;SDS011;28491;46.898;7.660;2023-02-10T08:37:34;18.00;;;8.98;;
42840;SDS011;28491;46.898;7.660;2023-02-10T08:40:00;12.30;;;8.75;;
42840;SDS011;28491;46.898;7.660;2023-02-10T08:42:27;18.48;;;8.57;;
42840;SDS011;28491;46.898;7.660;2023-02-10T08:44:53;19.42;;;9.05;;
42840;SDS011;28491;46.898;7.660;2023-02-10T08:47:18;21.20;;;9.32;;
42840;SDS011;28491;46.898;7.660;2023-02-10T08:49:44;11.13;;;7.93;;
42840;SDS011;28491;46.898;7.660;2023-02-10T08:52:09;16.50;;;8.73;;
42840;SDS011;28491;46.898;7.660;2023-02-10T08:54:36;26.98;;;9.80;;
42840;SDS011;28491;46.898;7.660;2023-02-10T08:57:04;17.30;;;10.52;;
42840;SDS011;28491;46.898;7.660;2023-02-10T08:59:29;14.13;;;9.02;;
42840;SDS011;28491;46.898;7.660;2023-02-10T09:01:55;12.25;;;8.30;;
42840;SDS011;28491;46.898;7.660;2023-02-10T09:04:21;11.18;;;8.75;;
42840;SDS011;28491;46.898;7.660;2023-02-10T09:06:46;15.40;;;10.00;;
42840;SDS011;28491;46.898;7.660;2023-02-10T09:09:13;15.32;;;9.93;;
42840;SDS011;28491;46.898;7.660;2023-02-10T09:11:40;14.27;;;9.00;;
42840;SDS011;28491;46.898;7.660;2023-02-10T09:14:07;14.18;;;9.15;;
42840;SDS011;28491;46.898;7.660;2023-02-10T09:16:33;11.82;;;8.90;;
42840;SDS011;28491;46.898;7.660;2023-02-10T09:18:59;17.50;;;9.07;;
42840;SDS011;28491;46.898;7.660;2023-02-10T09:21:24;15.50;;;9.77;;
42840;SDS011;28491;46.898;7.660;2023-02-10T09:23:50;16.95;;;9.38;;
42840;SDS011;28491;46.898;7.660;2023-02-10T09:26:17;15.15;;;10.50;;
42840;SDS011;28491;46.898;7.660;2023-02-10T09:28:42;11.85;;;8.57;;
42840;SDS011;28491;46.898;7.660;2023-02-10T09:31:09;17.05;;;9.70;;
42840;SDS011;28491;46.898;7.660;2023-02-10T09:33:36;13.85;;;8.68;;
42840;SDS011;28491;46.898;7.660;2023-02-10T09:36:02;14.80;;;10.18;;
42840;SDS011;28491;46.898;7.660;2023-02-10T09:38:29;12.20;;;8.70;;
42840;SDS011;28491;46.898;7.660;2023-02-10T09:49:17;14.10;;;9.30;;
42840;SDS011;28491;46.898;7.660;2023-02-10T09:54:32;12.38;;;9.00;;
42840;SDS011;28491;46.898;7.660;2023-02-10T09:57:05;12.27;;;9.95;;
42840;SDS011;28491;46.898;7.660;2023-02-10T09:59:36;12.52;;;8.73;;
42840;SDS011;28491;46.898;7.660;2023-02-10T10:02:11;13.15;;;8.98;;
42840;SDS011;28491;46.898;7.660;2023-02-10T10:04:51;11.98;;;9.20;;
42840;SDS011;28491;46.898;7.660;2023-02-10T10:12:28;15.40;;;9.25;;
42840;SDS011;28491;46.898;7.660;2023-02-10T10:14:54;14.45;;;10.05;;
42840;SDS011;28491;46.898;7.660;2023-02-10T10:28:12;13.45;;;8.23;;
42840;SDS011;28491;46.898;7.660;2023-02-10T10:30:45;15.40;;;9.38;;
42840;SDS011;28491;46.898;7.660;2023-02-10T10:33:28;13.93;;;9.35;;
42840;SDS011;28491;46.898;7.660;2023-02-10T10:36:00;13.55;;;9.43;;
42840;SDS011;28491;46.898;7.660;2023-02-10T10:38:30;17.88;;;11.80;;
42840;SDS011;28491;46.898;7.660;2023-02-10T10:40:59;14.30;;;10.13;;
42840;SDS011;28491;46.898;7.660;2023-02-10T10:43:32;17.83;;;11.93;;
42840;SDS011;28491;46.898;7.660;2023-02-10T10:46:12;15.00;;;10.35;;
42840;SDS011;28491;46.898;7.660;2023-02-10T10:48:50;18.15;;;11.23;;
42840;SDS011;28491;46.898;7.660;2023-02-10T10:51:16;17.17;;;11.45;;
42840;SDS011;28491;46.898;7.660;2023-02-10T11:01:36;18.88;;;12.40;;
42840;SDS011;28491;46.898;7.660;2023-02-10T11:04:04;21.92;;;12.90;;
42840;SDS011;28491;46.898;7.660;2023-02-10T11:06:33;18.95;;;10.45;;
42840;SDS011;28491;46.898;7.660;2023-02-10T11:11:34;14.82;;;10.35;;
42840;SDS011;28491;46.898;7.660;2023-02-10T11:14:02;16.38;;;10.07;;
42840;SDS011;28491;46.898;7.660;2023-02-10T11:16:39;16.00;;;9.60;;
42840;SDS011;28491;46.898;7.660;2023-02-10T11:19:16;15.43;;;8.52;;
42840;SDS011;28491;46.898;7.660;2023-02-10T11:21:53;15.98;;;10.18;;
42840;SDS011;28491;46.898;7.660;2023-02-10T11:27:05;13.88;;;9.30;;
42840;SDS011;28491;46.898;7.660;2023-02-10T11:29:45;14.95;;;8.85;;
42840;SDS011;28491;46.898;7.660;2023-02-10T11:32:23;18.02;;;11.35;;
42840;SDS011;28491;46.898;7.660;2023-02-10T11:34:55;16.77;;;10.15;;
42840;SDS011;28491;46.898;7.660;2023-02-10T11:39:57;12.85;;;8.30;;
42840;SDS011;28491;46.898;7.660;2023-02-10T11:45:02;18.70;;;9.35;;
42840;SDS011;28491;46.898;7.660;2023-02-10T11:47:40;16.38;;;9.45;;
42840;SDS011;28491;46.898;7.660;2023-02-10T11:50:18;15.43;;;8.82;;
42840;SDS011;28491;46.898;7.660;2023-02-10T11:52:49;14.80;;;8.35;;
42840;SDS011;28491;46.898;7.660;2023-02-10T11:55:14;14.02;;;9.20;;
42840;SDS011;28491;46.898;7.660;2023-02-10T11:57:44;16.77;;;9.45;;
42840;SDS011;28491;46.898;7.660;2023-02-10T12:00:56;16.25;;;9.52;;
42840;SDS011;28491;46.898;7.660;2023-02-10T12:03:32;16.38;;;9.57;;
42840;SDS011;28491;46.898;7.660;2023-02-10T12:06:19;14.15;;;9.63;;
42840;SDS011;28491;46.898;7.660;2023-02-10T12:09:00;13.13;;;8.40;;
42840;SDS011;28491;46.898;7.660;2023-02-10T12:11:46;16.00;;;9.63;;
42840;SDS011;28491;46.898;7.660;2023-02-10T12:14:40;12.68;;;8.20;;
42840;SDS011;28491;46.898;7.660;2023-02-10T12:17:23;15.95;;;10.07;;
42840;SDS011;28491;46.898;7.660;2023-02-10T12:25:31;14.95;;;10.02;;
42840;SDS011;28491;46.898;7.660;2023-02-10T12:36:41;15.82;;;9.93;;
42840;SDS011;28491;46.898;7.660;2023-02-10T12:42:08;13.60;;;9.35;;
42840;SDS011;28491;46.898;7.660;2023-02-10T12:45:20;13.40;;;9.88;;
42840;SDS011;28491;46.898;7.660;2023-02-10T12:48:26;16.50;;;10.65;;
42840;SDS011;28491;46.898;7.660;2023-02-10T12:53:53;17.83;;;10.57;;
42840;SDS011;28491;46.898;7.660;2023-02-10T12:56:26;18.45;;;11.43;;
42840;SDS011;28491;46.898;7.660;2023-02-10T12:59:04;17.92;;;11.80;;
42840;SDS011;28491;46.898;7.660;2023-02-10T13:01:39;23.27;;;11.35;;
42840;SDS011;28491;46.898;7.660;2023-02-10T13:04:21;20.38;;;12.60;;
42840;SDS011;28491;46.898;7.660;2023-02-10T13:06:56;17.67;;;11.75;;
42840;SDS011;28491;46.898;7.660;2023-02-10T13:09:38;17.50;;;12.63;;
42840;SDS011;28491;46.898;7.660;2023-02-10T13:14:54;23.05;;;15.05;;
42840;SDS011;28491;46.898;7.660;2023-02-10T13:17:44;23.73;;;15.75;;
42840;SDS011;28491;46.898;7.660;2023-02-10T13:20:29;21.13;;;13.82;;
42840;SDS011;28491;46.898;7.660;2023-02-10T13:23:11;21.92;;;14.50;;
42840;SDS011;28491;46.898;7.660;2023-02-10T13:25:46;20.73;;;14.57;;
42840;SDS011;28491;46.898;7.660;2023-02-10T13:28:28;21.55;;;15.05;;
42840;SDS011;28491;46.898;7.660;2023-02-10T13:31:15;24.27;;;15.00;;
42840;SDS011;28491;46.898;7.660;2023-02-10T13:36:26;22.73;;;14.98;;
42840;SDS011;28491;46.898;7.660;2023-02-10T13:41:43;19.73;;;13.38;;
42840;SDS011;28491;46.898;7.660;2023-02-10T13:44:24;18.33;;;12.25;;
42840;SDS011;28491;46.898;7.660;2023-02-10T13:46:58;19.42;;;12.70;;
42840;SDS011;28491;46.898;7.660;2023-02-10T13:49:33;18.95;;;13.32;;
42840;SDS011;28491;46.898;7.660;2023-02-10T13:52:04;24.67;;;16.48;;
42840;SDS011;28491;46.898;7.660;2023-02-10T13:54:53;20.55;;;14.18;;
42840;SDS011;28491;46.898;7.660;2023-02-10T13:57:22;20.63;;;15.32;;
42840;SDS011;28491;46.898;7.660;2023-02-10T13:59:49;19.65;;;14.18;;
42840;SDS011;28491;46.898;7.660;2023-02-10T14:02:19;21.48;;;14.52;;
42840;SDS011;28491;46.898;7.660;2023-02-10T14:04:51;20.85;;;13.27;;
42840;SDS011;28491;46.898;7.660;2023-02-10T14:10:25;22.63;;;15.02;;
42840;SDS011;28491;46.898;7.660;2023-02-10T14:18:23;20.67;;;14.23;;
42840;SDS011;28491;46.898;7.660;2023-02-10T14:20:58;21.08;;;13.68;;
42840;SDS011;28491;46.898;7.660;2023-02-10T14:23:26;23.77;;;15.50;;
42840;SDS011;28491;46.898;7.660;2023-02-10T14:25:59;21.65;;;15.20;;
42840;SDS011;28491;46.898;7.660;2023-02-10T14:28:39;25.27;;;16.73;;
42840;SDS011;28491;46.898;7.660;2023-02-10T14:31:20;29.50;;;18.05;;
42840;SDS011;28491;46.898;7.660;2023-02-10T14:33:55;28.48;;;18.58;;
42840;SDS011;28491;46.898;7.660;2023-02-10T14:36:22;29.33;;;18.63;;
42840;SDS011;28491;46.898;7.660;2023-02-10T14:38:56;25.27;;;16.60;;
42840;SDS011;28491;46.898;7.660;2023-02-10T14:41:23;29.27;;;19.23;;
42840;SDS011;28491;46.898;7.660;2023-02-10T14:43:51;29.83;;;20.23;;
42840;SDS011;28491;46.898;7.660;2023-02-10T14:46:28;31.92;;;19.60;;
42840;SDS011;28491;46.898;7.660;2023-02-10T14:48:57;34.80;;;20.20;;
42840;SDS011;28491;46.898;7.660;2023-02-10T14:51:37;31.67;;;21.10;;
42840;SDS011;28491;46.898;7.660;2023-02-10T14:54:21;32.58;;;19.73;;
42840;SDS011;28491;46.898;7.660;2023-02-10T14:59:24;31.17;;;20.92;;
42840;SDS011;28491;46.898;7.660;2023-02-10T15:01:52;33.50;;;22.05;;
42840;SDS011;28491;46.898;7.660;2023-02-10T15:04:19;32.42;;;20.75;;
42840;SDS011;28491;46.898;7.660;2023-02-10T15:06:49;34.00;;;21.27;;
42840;SDS011;28491;46.898;7.660;2023-02-10T15:09:18;31.30;;;21.50;;
42840;SDS011;28491;46.898;7.660;2023-02-10T15:11:58;29.88;;;20.48;;
42840;SDS011;28491;46.898;7.660;2023-02-10T15:14:43;29.25;;;19.80;;
42840;SDS011;28491;46.898;7.660;2023-02-10T15:17:21;27.15;;;18.35;;
42840;SDS011;28491;46.898;7.660;2023-02-10T15:19:54;27.90;;;19.65;;
42840;SDS011;28491;46.898;7.660;2023-02-10T15:23:22;31.38;;;19.15;;
42840;SDS011;28491;46.898;7.660;2023-02-10T15:30:42;31.52;;;19.75;;
42840;SDS011;28491;46.898;7.660;2023-02-10T15:36:02;28.43;;;18.07;;
42840;SDS011;28491;46.898;7.660;2023-02-10T15:38:28;29.98;;;19.20;;
42840;SDS011;28491;46.898;7.660;2023-02-10T15:40:56;28.00;;;18.45;;
42840;SDS011;28491;46.898;7.660;2023-02-10T15:46:05;26.30;;;18.63;;
42840;SDS011;28491;46.898;7.660;2023-02-10T15:48:32;28.25;;;18.70;;
42840;SDS011;28491;46.898;7.660;2023-02-10T15:50:57;29.33;;;19.42;;
42840;SDS011;28491;46.898;7.660;2023-02-10T15:53:23;37.03;;;20.88;;
42840;SDS011;28491;46.898;7.660;2023-02-10T15:55:48;30.08;;;18.77;;
42840;SDS011;28491;46.898;7.660;2023-02-10T15:58:14;30.02;;;19.40;;
42840;SDS011;28491;46.898;7.660;2023-02-10T16:00:41;30.48;;;20.20;;
42840;SDS011;28491;46.898;7.660;2023-02-10T16:03:09;30.47;;;18.60;;
42840;SDS011;28491;46.898;7.660;2023-02-10T16:05:35;32.08;;;19.38;;
42840;SDS011;28491;46.898;7.660;2023-02-10T16:08:04;32.33;;;20.58;;
42840;SDS011;28491;46.898;7.660;2023-02-10T16:10:43;33.83;;;21.92;;
42840;SDS011;28491;46.898;7.660;2023-02-10T16:13:11;31.13;;;19.38;;
42840;SDS011;28491;46.898;7.660;2023-02-10T16:15:38;30.90;;;20.38;;
42840;SDS011;28491;46.898;7.660;2023-02-10T16:18:04;31.98;;;19.58;;
42840;SDS011;28491;46.898;7.660;2023-02-10T16:20:31;40.92;;;23.17;;
42840;SDS011;28491;46.898;7.660;2023-02-10T16:22:57;35.78;;;22.20;;
42840;SDS011;28491;46.898;7.660;2023-02-10T16:25:24;35.53;;;20.88;;
42840;SDS011;28491;46.898;7.660;2023-02-10T16:27:52;32.28;;;21.67;;
42840;SDS011;28491;46.898;7.660;2023-02-10T16:30:19;34.53;;;20.35;;
42840;SDS011;28491;46.898;7.660;2023-02-10T16:32:49;35.17;;;20.73;;
42840;SDS011;28491;46.898;7.660;2023-02-10T16:35:15;32.78;;;20.92;;
42840;SDS011;28491;46.898;7.660;2023-02-10T16:37:41;34.35;;;21.83;;
42840;SDS011;28491;46.898;7.660;2023-02-10T16:40:08;32.28;;;21.13;;
42840;SDS011;28491;46.898;7.660;2023-02-10T16:42:48;36.45;;;20.92;;
42840;SDS011;28491;46.898;7.660;2023-02-10T16:45:13;41.47;;;25.30;;
42840;SDS011;28491;46.898;7.660;2023-02-10T16:47:39;38.38;;;22.67;;